Date,TemperatureHighF,TemperatureAvgF,TemperatureLowF,DewpointHighF,DewpointAvgF,DewpointLowF,HumidityHigh,HumidityAvg,HumidityLow,PressureMaxIn,PressureMinIn,WindSpeedMaxMPH,WindSpeedAvgMPH,GustSpeedMaxMPH,PrecipitationSumIn
2013-5-1,89.1,75.6,70.7,75.5,66.0,62.0,85,73,47,29.90,29.82,12,0,12,0.16
2013-5-2,81.9,73.4,70.0,71.9,67.3,62.9,91,82,66,29.85,29.69,18,1,18,0.20
2013-5-3,93.4,77.8,69.1,77.9,65.1,58.2,89,68,34,29.73,29.60,12,1,12,0.33
2013-5-4,91.6,79.5,69.3,80.8,62.5,55.4,88,59,34,29.72,29.60,14,1,14,0.26
2013-5-5,84.0,75.6,68.5,66.0,57.3,46.0,81,56,30,29.85,29.68,12,2,12,0.00
2013-5-6,90.3,75.9,60.3,73.4,54.0,47.3,76,49,27,29.93,29.83,12,0,12,0.00
2013-5-7,89.2,77.0,64.8,60.9,54.0,47.9,78,48,26,29.98,29.88,14,1,14,0.00
2013-5-8,91.0,78.5,64.2,62.5,54.2,47.0,78,46,23,30.05,29.96,10,0,10,0.00
2013-5-9,92.5,79.8,67.1,67.9,61.4,51.5,75,55,36,30.05,29.97,12,1,12,0.00
2013-5-10,92.7,83.6,73.8,75.9,66.4,61.8,75,58,37,30.04,29.93,13,2,13,0.00
2013-5-11,93.4,82.1,74.1,76.4,67.7,63.0,83,63,42,29.98,29.89,12,1,12,0.45
2013-5-12,96.3,81.7,73.0,76.8,67.3,61.8,86,64,35,29.98,29.86,12,0,12,0.51
2013-5-13,91.8,80.8,71.8,74.6,64.8,57.2,86,61,39,30.00,29.90,11,1,11,0.29
2013-5-14,85.5,77.2,70.5,63.4,55.1,47.6,73,48,34,30.09,29.97,16,2,16,0.00
2013-5-15,85.8,76.5,67.1,70.7,55.0,49.7,72,49,31,30.10,30.00,14,2,14,0.00
2013-5-16,87.6,78.0,66.6,63.4,55.7,52.4,72,47,33,30.03,29.95,12,2,12,0.00
2013-5-17,91.8,80.4,70.3,70.6,62.9,57.7,75,57,36,30.00,29.92,16,1,16,0.00
2013-5-18,93.0,82.2,74.1,72.4,66.3,63.8,79,59,43,30.01,29.93,12,2,12,0.00
2013-5-19,90.9,81.9,72.3,72.1,63.8,57.7,81,56,36,30.01,29.91,12,2,12,0.00
2013-5-20,83.1,78.1,75.2,71.8,67.6,63.0,78,70,63,29.99,29.90,10,1,10,0.45
2013-5-21,86.9,80.6,76.6,67.6,65.8,64.0,71,61,49,29.89,29.84,12,2,12,0.57
2013-5-22,92.8,78.7,74.1,74.2,68.5,62.3,83,72,44,29.88,29.80,114,0,114,0.00
2013-5-23,94.3,84.2,73.4,78.0,67.2,57.5,88,60,31,29.92,29.82,14,1,14,0.00
2013-5-24,96.4,85.2,76.3,73.8,67.5,58.7,82,58,30,29.97,29.85,11,1,11,0.00
2013-5-25,88.0,82.0,75.9,70.6,62.9,0.0,79,54,37,30.07,29.95,19,4,19,0.00
2013-5-26,91.4,80.6,71.4,63.4,58.6,55.5,66,48,34,30.08,30.01,16,3,16,0.00
2013-5-27,87.1,80.4,74.8,69.4,64.8,58.1,79,60,47,30.06,29.97,17,4,17,0.04
2013-5-28,86.7,79.9,75.6,70.2,68.0,65.8,81,67,53,30.02,29.95,114,4,114,0.16
2013-5-29,83.7,76.9,72.5,71.8,68.0,62.4,87,74,59,30.00,29.93,21,3,21,0.53
2013-5-30,86.2,79.8,73.2,72.4,67.9,64.5,84,67,55,29.98,29.91,21,4,21,0.18
2013-5-31,88.5,81.2,75.7,72.7,69.4,66.4,82,68,51,29.96,29.90,16,3,16,0.08